Portada
METAR-TAF:

METAR-TAF

Aeroports :

Txità, Rússia

latitud: 52-05N, longitud: 113-29E, altitud: 685 m

Observació

L'informe es va fer fa 33 minuts, a les 11:00 UTC
Vent 8 kt del Sud-Oest
Temperatura -11°C
Humitat 51%
Pressió 1015 hPa
Visibilitat 10 km o més

METAR: UIAA 201100Z 23004MPS 9999 NSC M11/M19 Q1015 R29/018165 NOSIG RMK QFE703/0937

Hora: 20:33 (11:33 UTC)

Pronòstic

L'informe es va fer fa 3 hores i 33 minuts, a les 08:00 UTC
Pronòstic vàlid del 20 a les 09 UTC al 21 a les 09 UTC
Vent 12 kt del Oest amb ràfegues de 21 kt
Visibilitat 10 km o més
Temporalment
l' 20 a les 12 UTC al 20 a les 24 UTC
Vent 6 kt del Sud/Sud-Oest

TAF: UIAA 200800Z 2009/2109 28006G11MPS 9999 NSC TEMPO 2012/2024 21003MPS

Observacions i pronòstics meteorològics de més de 4000 aeroports (METAR i TAF).

Les estacions disponibles són els punts grocs i vermells al mapa.

Posi el ratolí al punt desitjat per veure el nom de l'estació.

Feu clic per veure les observacions i els pronòstics meteorològics.

Per canviar el mapa: feu clic els botons verds amb una creu de color negre per apropar; al botó verd amb un guió per allunyar la imatge; o en les fletxes verdes per a mapes adjacents.


METAR-TAF: